createdAt,value
2023-10-21T03:01:50.665Z,99.90
2023-10-21T03:04:18.754Z,99.90
2023-10-21T03:06:46.768Z,99.90
2023-10-21T03:09:17.538Z,99.90
2023-10-21T03:11:46.225Z,99.90
2023-10-21T03:14:14.890Z,99.90
2023-10-21T03:16:42.795Z,99.90
2023-10-21T03:19:12.093Z,99.90
2023-10-21T03:21:40.056Z,99.90
2023-10-21T03:24:08.551Z,99.90
2023-10-21T03:26:36.532Z,99.90
2023-10-21T03:29:05.738Z,99.90
2023-10-21T03:31:33.707Z,99.90
2023-10-21T03:34:01.644Z,99.90
2023-10-21T03:36:30.892Z,99.90
2023-10-21T03:38:58.989Z,99.90
2023-10-21T03:41:26.931Z,99.90
2023-10-21T03:43:54.868Z,99.90
2023-10-21T03:46:23.494Z,99.90
2023-10-21T03:48:51.561Z,99.90
2023-10-21T03:51:19.555Z,99.90
2023-10-21T03:53:48.880Z,99.90
2023-10-21T03:56:17.007Z,99.90
2023-10-21T03:58:45.078Z,99.90
2023-10-21T04:01:13.046Z,99.90
2023-10-21T04:03:41.133Z,99.90
2023-10-21T04:06:11.120Z,99.90
2023-10-21T04:08:39.293Z,99.90
2023-10-21T04:11:09.475Z,99.90
2023-10-21T04:13:37.422Z,99.90
2023-10-21T04:16:06.947Z,99.90
2023-10-21T04:18:34.978Z,99.90
2023-10-21T04:21:03.286Z,99.90
2023-10-21T04:23:31.234Z,99.90
2023-10-21T04:25:59.146Z,99.90
2023-10-21T04:28:29.172Z,99.90
2023-10-21T04:30:57.125Z,99.90
2023-10-21T04:33:25.435Z,99.90
2023-10-21T04:35:54.170Z,99.90
2023-10-21T04:38:22.084Z,99.90
2023-10-21T04:40:50.034Z,99.90
2023-10-21T04:43:18.284Z,99.90
2023-10-21T04:45:47.519Z,99.90
2023-10-21T04:48:15.689Z,99.90
2023-10-21T04:50:43.844Z,99.90
2023-10-21T04:53:11.850Z,99.90
2023-10-21T04:55:39.821Z,99.90
2023-10-21T04:58:09.108Z,99.90
2023-10-21T05:00:37.351Z,99.90
2023-10-21T05:03:06.953Z,99.90
2023-10-21T05:05:35.998Z,99.90
2023-10-21T05:08:04.253Z,99.90
2023-10-21T05:10:32.981Z,99.90
2023-10-21T05:13:00.887Z,99.90
2023-10-21T05:15:29.298Z,99.90
2023-10-21T05:17:57.369Z,99.90
2023-10-21T05:20:27.490Z,99.90
2023-10-21T05:22:55.407Z,99.90
2023-10-21T05:25:24.017Z,99.90
2023-10-21T05:27:51.973Z,99.90
2023-10-21T05:30:19.906Z,99.90
2023-10-21T05:32:48.000Z,99.90
2023-10-21T05:35:16.051Z,99.90
2023-10-21T05:37:45.315Z,99.90
2023-10-21T05:40:13.982Z,99.90
2023-10-21T05:42:42.096Z,99.90
2023-10-21T05:45:10.479Z,99.90
2023-10-21T05:47:38.582Z,99.90
2023-10-21T05:50:08.122Z,99.90
2023-10-21T05:52:36.067Z,99.90
2023-10-21T05:55:06.759Z,99.90
2023-10-21T05:57:34.676Z,99.90
2023-10-21T06:00:02.891Z,99.90
2023-10-21T06:02:32.690Z,99.90
2023-10-21T06:05:00.645Z,99.90
2023-10-21T06:07:32.036Z,99.90
2023-10-21T06:10:00.021Z,99.90
2023-10-21T06:12:29.553Z,99.90
2023-10-21T06:14:57.514Z,99.90
2023-10-21T06:17:25.563Z,99.90
2023-10-21T06:19:54.329Z,99.90
2023-10-21T06:22:23.332Z,99.90
2023-10-21T06:24:51.227Z,99.90
2023-10-21T06:27:19.200Z,99.90
2023-10-21T06:29:48.488Z,99.90
2023-10-21T06:32:16.391Z,99.90
2023-10-21T06:34:44.282Z,99.90
2023-10-21T06:37:12.509Z,99.90
2023-10-21T06:39:40.458Z,99.90
2023-10-21T06:42:08.555Z,99.90
2023-10-21T06:44:38.004Z,99.90
2023-10-21T06:47:08.130Z,99.90
2023-10-21T06:49:36.178Z,99.90
2023-10-21T06:52:04.274Z,99.90
2023-10-21T06:54:32.558Z,99.90
2023-10-21T06:57:00.533Z,99.90
2023-10-21T06:59:28.440Z,99.90
2023-10-21T07:01:56.379Z,99.90
2023-10-21T07:04:25.784Z,99.90
2023-10-21T07:06:53.702Z,99.90
2023-10-21T07:09:21.759Z,99.90
2023-10-21T07:11:49.720Z,99.90
2023-10-21T07:14:17.635Z,99.90
2023-10-21T07:16:45.626Z,99.90
2023-10-21T07:19:13.576Z,99.90
2023-10-21T07:21:43.023Z,99.90
2023-10-21T07:24:13.367Z,99.90
2023-10-21T07:26:42.859Z,99.90
2023-10-21T07:29:10.983Z,99.90
2023-10-21T07:31:40.584Z,99.90
2023-10-21T07:34:08.560Z,99.90
2023-10-21T07:36:36.546Z,99.90
2023-10-21T07:39:06.713Z,99.90
2023-10-21T07:41:34.965Z,99.90
2023-10-21T07:44:03.016Z,99.90
2023-10-21T07:46:30.963Z,99.90
2023-10-21T07:48:58.850Z,99.90
2023-10-21T07:51:26.918Z,99.90
2023-10-21T07:53:55.029Z,99.90
2023-10-21T07:56:24.525Z,99.90
2023-10-21T07:58:52.395Z,99.90
2023-10-21T08:01:20.908Z,99.90
2023-10-21T08:03:48.880Z,99.90
2023-10-21T08:06:16.906Z,99.90
2023-10-21T08:08:44.982Z,99.90
2023-10-21T08:11:12.894Z,99.90
2023-10-21T08:13:42.156Z,99.90
2023-10-21T08:16:10.102Z,99.90
2023-10-21T08:18:38.064Z,99.90
2023-10-21T08:21:06.847Z,99.90
2023-10-21T08:23:34.882Z,99.90
2023-10-21T08:26:02.749Z,99.90
2023-10-21T08:28:31.209Z,99.90
2023-10-21T08:31:00.454Z,99.90
2023-10-21T08:33:28.459Z,99.90
2023-10-21T08:35:56.382Z,99.90
2023-10-21T08:38:24.451Z,99.90
2023-10-21T08:40:52.925Z,99.90
2023-10-21T08:43:22.754Z,99.90
2023-10-21T08:45:50.984Z,99.90
2023-10-21T08:48:20.242Z,99.90
2023-10-21T08:50:50.508Z,99.90
2023-10-21T08:53:18.756Z,99.90
2023-10-21T08:55:47.111Z,99.90
2023-10-21T08:58:16.658Z,99.90
2023-10-21T09:00:45.374Z,99.90
2023-10-21T09:03:14.475Z,99.90
2023-10-21T09:06:04.849Z,99.90
2023-10-21T09:08:33.401Z,99.90
2023-10-21T09:11:04.033Z,99.90
2023-10-21T09:13:32.237Z,99.90
2023-10-21T09:16:01.817Z,99.90
2023-10-21T09:18:29.920Z,99.90
2023-10-21T09:20:57.879Z,99.90
2023-10-21T09:23:28.080Z,99.90
2023-10-21T09:25:56.252Z,99.90
2023-10-21T09:28:25.965Z,99.90
2023-10-21T09:30:58.207Z,99.90
2023-10-21T09:33:27.887Z,99.90
2023-10-21T09:36:19.047Z,99.90
2023-10-21T09:38:53.023Z,99.90
2023-10-21T09:41:22.872Z,99.90
2023-10-21T09:43:52.391Z,99.90
2023-10-21T09:46:21.583Z,99.90
2023-10-21T09:48:53.530Z,99.90
2023-10-21T09:51:24.093Z,99.90
2023-10-21T09:53:58.541Z,99.90
2023-10-21T09:56:28.405Z,99.90
2023-10-21T09:58:57.686Z,99.90
2023-10-21T10:01:26.283Z,99.90
2023-10-21T10:03:56.078Z,99.90
2023-10-21T10:06:30.600Z,99.90
2023-10-21T10:09:07.542Z,99.90
2023-10-21T10:11:39.734Z,99.90
2023-10-21T10:14:07.786Z,99.90
2023-10-21T10:16:43.335Z,99.90
2023-10-21T10:19:14.064Z,99.90
2023-10-21T10:21:43.957Z,99.90
2023-10-21T10:24:13.638Z,99.90
2023-10-21T10:26:41.654Z,99.90
2023-10-21T10:29:20.285Z,99.90
2023-10-21T10:31:52.718Z,99.90
2023-10-21T10:34:20.987Z,99.90
2023-10-21T10:36:48.856Z,99.90
2023-10-21T10:39:41.755Z,99.90
2023-10-21T10:42:11.722Z,99.90
2023-10-21T10:44:39.760Z,99.90
2023-10-21T10:47:08.192Z,99.90
2023-10-21T10:49:57.515Z,99.90
2023-10-21T10:52:29.409Z,99.90
2023-10-21T10:54:58.701Z,99.90
2023-10-21T10:57:27.513Z,99.90
2023-10-21T10:59:55.391Z,99.90
2023-10-21T11:02:25.648Z,99.90
2023-10-21T11:04:59.902Z,99.90
2023-10-21T11:07:31.297Z,99.90
2023-10-21T11:10:08.166Z,99.90
2023-10-21T11:12:36.282Z,99.90
2023-10-21T11:15:07.349Z,99.90
2023-10-21T11:17:35.581Z,99.90
2023-10-21T11:20:04.207Z,99.90
2023-10-21T11:22:32.135Z,99.90
2023-10-21T11:24:59.998Z,99.90
2023-10-21T11:27:29.627Z,99.90
2023-10-21T11:29:58.518Z,99.90
2023-10-21T11:32:28.442Z,99.90
2023-10-21T11:34:56.795Z,99.90
2023-10-21T11:37:25.962Z,99.90
2023-10-21T11:39:54.456Z,99.90
2023-10-21T11:42:22.381Z,99.90
2023-10-21T11:44:57.807Z,99.90
2023-10-21T11:47:27.957Z,99.90
2023-10-21T11:49:56.610Z,99.90
2023-10-21T11:52:28.441Z,99.90
2023-10-21T11:55:14.940Z,99.90
2023-10-21T11:58:03.406Z,99.90
2023-10-21T12:01:03.512Z,99.90
2023-10-21T12:03:57.588Z,99.90
2023-10-21T12:06:42.888Z,99.90
2023-10-21T12:09:36.826Z,99.90
2023-10-21T12:12:36.713Z,99.90
2023-10-21T12:15:24.718Z,99.90
2023-10-21T12:18:25.936Z,99.90
2023-10-21T12:21:07.876Z,99.90
2023-10-21T12:24:00.856Z,99.90
2023-10-21T12:26:46.146Z,99.90
2023-10-21T12:29:27.954Z,99.90
2023-10-21T12:32:13.153Z,99.90
2023-10-21T12:35:12.357Z,99.90
2023-10-21T12:38:03.009Z,99.90
2023-10-21T12:40:32.945Z,99.90
2023-10-21T12:43:24.908Z,99.90
2023-10-21T12:45:55.444Z,99.90
2023-10-21T12:48:23.465Z,99.90
2023-10-21T12:50:52.776Z,99.90
2023-10-21T12:53:21.300Z,99.90
2023-10-21T12:55:49.587Z,99.90
2023-10-21T12:58:17.465Z,99.90
2023-10-21T13:00:45.859Z,99.90
2023-10-21T13:03:14.440Z,99.90
2023-10-21T13:05:44.792Z,99.90
2023-10-21T13:08:14.067Z,99.90
2023-10-21T13:10:41.964Z,99.90
2023-10-21T13:13:12.297Z,99.90
2023-10-21T13:15:40.381Z,99.90
2023-10-21T13:18:08.548Z,99.90
2023-10-21T13:20:36.675Z,99.90
2023-10-21T13:23:05.578Z,99.90
2023-10-21T13:25:37.279Z,99.90
2023-10-21T13:28:06.855Z,99.90
2023-10-21T13:30:35.019Z,99.90
2023-10-21T13:33:05.166Z,99.90
2023-10-21T13:35:35.519Z,99.90
2023-10-21T13:38:03.835Z,99.90
2023-10-21T13:40:32.132Z,99.90
2023-10-21T13:43:01.517Z,99.90
2023-10-21T13:45:30.226Z,99.90
2023-10-21T13:47:59.435Z,99.90
2023-10-21T13:50:28.736Z,99.90
2023-10-21T13:53:05.906Z,99.90
2023-10-21T13:55:33.888Z,99.90
2023-10-21T13:58:03.112Z,99.90
2023-10-21T14:00:36.086Z,99.90
2023-10-21T14:03:15.672Z,99.90
2023-10-21T14:05:45.181Z,99.90
2023-10-21T14:08:15.906Z,99.90
2023-10-21T14:10:45.360Z,99.90
2023-10-21T14:13:16.794Z,99.90
2023-10-21T14:15:46.560Z,99.90
2023-10-21T14:18:14.569Z,99.90
2023-10-21T14:20:42.695Z,99.30
2023-10-21T14:23:11.340Z,99.00
2023-10-21T14:25:40.725Z,99.40
2023-10-21T14:28:13.251Z,98.70
2023-10-21T14:30:44.124Z,98.20
2023-10-21T14:33:13.399Z,97.30
2023-10-21T14:35:42.241Z,97.20
2023-10-21T14:38:10.689Z,97.50
2023-10-21T14:40:39.567Z,97.70
2023-10-21T14:43:09.347Z,97.50
2023-10-21T14:45:38.225Z,98.10
2023-10-21T14:48:10.894Z,96.60
2023-10-21T14:50:39.681Z,97.20
2023-10-21T14:53:09.412Z,96.20
2023-10-21T14:55:50.766Z,96.00
2023-10-21T14:58:23.424Z,96.70
2023-10-21T15:00:52.009Z,97.70
2023-10-21T15:03:22.217Z,97.60
2023-10-21T15:05:51.160Z,98.40
2023-10-21T15:08:22.141Z,98.20
2023-10-21T15:10:52.254Z,97.90
2023-10-21T15:13:20.946Z,98.90
2023-10-21T15:15:50.867Z,98.90
2023-10-21T15:18:19.897Z,99.00
2023-10-21T15:20:49.241Z,98.60
2023-10-21T15:23:18.545Z,98.50
2023-10-21T15:25:47.059Z,99.30
2023-10-21T15:28:14.979Z,99.60
2023-10-21T15:30:42.958Z,99.60
2023-10-21T15:33:11.011Z,99.90
2023-10-21T15:35:39.034Z,99.90
2023-10-21T15:38:08.697Z,99.90
2023-10-21T15:40:36.753Z,99.90
2023-10-21T15:43:04.981Z,99.90
2023-10-21T15:45:32.940Z,99.90
2023-10-21T15:48:00.933Z,99.90
2023-10-21T15:50:28.958Z,99.90
2023-10-21T15:52:56.871Z,99.90
2023-10-21T15:55:27.160Z,99.90
2023-10-21T15:57:55.102Z,99.90
2023-10-21T16:00:23.273Z,99.90
2023-10-21T16:02:51.485Z,99.90
2023-10-21T16:05:19.602Z,99.90
2023-10-21T16:07:57.893Z,99.90
2023-10-21T16:10:27.667Z,99.90
2023-10-21T16:12:55.603Z,99.90
2023-10-21T16:15:23.705Z,99.90
2023-10-21T16:17:51.821Z,99.90
2023-10-21T16:20:19.887Z,99.90
2023-10-21T16:22:48.943Z,99.90
2023-10-21T16:25:17.331Z,99.90
2023-10-21T16:27:46.637Z,99.90
2023-10-21T16:30:15.039Z,99.90
2023-10-21T16:32:43.202Z,99.90
2023-10-21T16:35:11.864Z,99.90
2023-10-21T16:37:39.865Z,99.90
2023-10-21T16:40:09.563Z,99.90
2023-10-21T16:42:37.744Z,99.90
2023-10-21T16:45:08.500Z,99.90
2023-10-21T16:47:36.638Z,99.90
2023-10-21T16:50:04.980Z,99.90
2023-10-21T16:52:32.976Z,99.90
2023-10-21T16:55:01.489Z,99.90
2023-10-21T16:57:29.867Z,99.90
2023-10-21T16:59:57.800Z,99.90
2023-10-21T17:02:27.141Z,99.90
2023-10-21T17:04:55.172Z,99.90
2023-10-21T17:07:23.094Z,99.90
2023-10-21T17:09:53.192Z,99.90
2023-10-21T17:12:21.352Z,99.90
2023-10-21T17:14:49.988Z,99.90
2023-10-21T17:17:17.918Z,99.90
2023-10-21T17:19:47.301Z,99.90
2023-10-21T17:22:15.223Z,99.90
2023-10-21T17:24:43.236Z,99.90
2023-10-21T17:27:11.271Z,99.90
2023-10-21T17:29:39.382Z,99.90
2023-10-21T17:32:08.743Z,99.90
2023-10-21T17:34:37.028Z,99.90
2023-10-21T17:37:06.420Z,99.90
2023-10-21T17:39:34.389Z,99.90
2023-10-21T17:42:02.343Z,99.90
2023-10-21T17:44:32.690Z,99.90
2023-10-21T17:47:01.080Z,99.90
2023-10-21T17:49:29.273Z,99.90
2023-10-21T17:51:58.540Z,99.90
2023-10-21T17:54:28.230Z,99.90
2023-10-21T17:56:56.252Z,99.90
2023-10-21T17:59:24.198Z,99.90
2023-10-21T18:01:52.179Z,99.90
2023-10-21T18:04:20.276Z,99.90
2023-10-21T18:06:48.994Z,99.90
2023-10-21T18:09:17.233Z,99.90
2023-10-21T18:11:46.514Z,99.90
2023-10-21T18:14:14.490Z,99.90
2023-10-21T18:16:42.792Z,99.90
2023-10-21T18:19:10.774Z,99.90
2023-10-21T18:21:38.706Z,99.90
2023-10-21T18:24:07.820Z,99.90
2023-10-21T18:26:35.760Z,99.90
2023-10-21T18:29:05.668Z,99.90
2023-10-21T18:31:33.936Z,99.90
2023-10-21T18:34:01.947Z,99.90
2023-10-21T18:36:29.938Z,99.90
2023-10-21T18:38:57.911Z,99.90
2023-10-21T18:41:26.636Z,99.90
2023-10-21T18:43:54.594Z,99.90
2023-10-21T18:46:23.928Z,99.90
2023-10-21T18:48:51.905Z,99.90
2023-10-21T18:51:26.687Z,99.90
2023-10-21T18:53:55.294Z,99.90
2023-10-21T18:56:23.208Z,99.90
2023-10-21T18:58:51.641Z,99.90
2023-10-21T19:01:19.847Z,99.90
2023-10-21T19:03:49.666Z,99.90
2023-10-21T19:06:18.202Z,99.90
2023-10-21T19:08:46.272Z,99.90
2023-10-21T19:11:14.606Z,99.90
2023-10-21T19:13:42.572Z,99.90
2023-10-21T19:16:10.508Z,99.90
2023-10-21T19:18:38.528Z,99.90
2023-10-21T19:21:08.603Z,99.90
2023-10-21T19:23:37.606Z,99.90
2023-10-21T19:26:05.653Z,99.90
2023-10-21T19:28:33.719Z,99.90
2023-10-21T19:31:05.701Z,99.90
2023-10-21T19:33:33.804Z,99.90
2023-10-21T19:36:01.774Z,99.90
2023-10-21T19:38:31.022Z,99.90
2023-10-21T19:40:58.912Z,99.90
2023-10-21T19:43:26.886Z,99.90
2023-10-21T19:45:54.850Z,99.90
2023-10-21T19:48:22.806Z,99.90
2023-10-21T19:50:50.743Z,99.90
2023-10-21T19:53:19.461Z,99.90
2023-10-21T19:55:56.716Z,99.90
2023-10-21T19:58:27.138Z,99.90
2023-10-21T20:00:56.926Z,99.90
2023-10-21T20:03:25.261Z,99.90
2023-10-21T20:05:57.075Z,99.90
2023-10-21T20:08:25.452Z,99.90
2023-10-21T20:11:04.712Z,99.90
2023-10-21T20:13:33.942Z,99.90
2023-10-21T20:16:06.333Z,99.90
2023-10-21T20:18:34.297Z,99.90
2023-10-21T20:21:03.727Z,99.90
2023-10-21T20:23:31.908Z,99.90
2023-10-21T20:26:07.707Z,99.90
2023-10-21T20:28:36.462Z,99.90
2023-10-21T20:31:05.498Z,99.90
2023-10-21T20:33:34.058Z,99.90
2023-10-21T20:36:05.514Z,99.90
2023-10-21T20:38:33.857Z,99.90
2023-10-21T20:41:10.163Z,99.90
2023-10-21T20:43:38.806Z,99.90
2023-10-21T20:46:07.546Z,99.90
2023-10-21T20:48:35.787Z,99.90
2023-10-21T20:51:04.201Z,99.90
2023-10-21T20:53:33.393Z,99.90
2023-10-21T20:56:01.754Z,99.90
2023-10-21T20:58:32.521Z,99.90
2023-10-21T21:01:00.451Z,99.90
2023-10-21T21:03:28.441Z,99.90
2023-10-21T21:05:56.382Z,99.90
2023-10-21T21:08:24.296Z,99.90
2023-10-21T21:10:52.249Z,99.90
2023-10-21T21:13:20.216Z,99.90
2023-10-21T21:15:49.550Z,99.90
2023-10-21T21:18:17.548Z,99.90
2023-10-21T21:20:45.856Z,99.90
2023-10-21T21:23:15.222Z,99.90
2023-10-21T21:25:44.204Z,99.90
2023-10-21T21:28:16.354Z,99.90
2023-10-21T21:30:52.883Z,99.90
2023-10-21T21:33:20.883Z,99.90
2023-10-21T21:35:57.686Z,99.90
2023-10-21T21:38:26.089Z,99.90
2023-10-21T21:40:54.166Z,99.90
2023-10-21T21:43:22.458Z,99.90
2023-10-21T21:45:52.722Z,99.90
2023-10-21T21:48:20.746Z,99.90
2023-10-21T21:50:48.665Z,99.90
2023-10-21T21:53:16.587Z,99.90
2023-10-21T21:55:47.537Z,99.90
2023-10-21T21:58:15.452Z,99.90
